Time;durP1;ratioP1;P1;durP2;ratioP2;P2;SDS_P1;SDS_P2;PMS_P1;PMS_P2;Temp;Humidity;BMP_temperature;BMP_pressure;BME280_temperature;BME280_humidity;BME280_pressure;Samples;Min_cycle;Max_cycle;Signal;HPM_P1;HPM_P2
2024/04/10 00:02:21;;;;;;;3.33;0.93;;;;;;;;;;10621851;27;20454;-74
2024/04/10 00:07:28;;;;;;;1.73;0.63;;;;;;;;;;10619424;27;20068;-74
2024/04/10 00:12:34;;;;;;;4.70;1.00;;;;;;;;;;10624708;27;20745;-74
2024/04/10 00:17:39;;;;;;;2.27;1.03;;;;;;;;;;10601584;27;20017;-74
2024/04/10 00:22:47;;;;;;;1.30;0.70;;;;;;;;;;10611650;27;20017;-74
2024/04/10 00:27:52;;;;;;;2.97;0.60;;;;;;;;;;10614344;27;20025;-74
2024/04/10 00:32:57;;;;;;;2.10;0.60;;;;;;;;;;10612802;27;20040;-74
2024/04/10 00:38:05;;;;;;;1.07;0.43;;;;;;;;;;10616952;27;20021;-74
2024/04/10 00:43:15;;;;;;;1.95;0.70;;;;;;;;;;10618562;27;20455;-74
2024/04/10 00:48:20;;;;;;;3.10;0.68;;;;;;;;;;10619504;27;20005;-74
2024/04/10 00:53:28;;;;;;;4.60;0.77;;;;;;;;;;10620158;27;20017;-74
2024/04/10 00:58:34;;;;;;;1.80;0.70;;;;;;;;;;10633191;27;20024;-74
2024/04/10 01:03:40;;;;;;;0.63;0.35;;;;;;;;;;10626106;27;20009;-74
2024/04/10 01:08:48;;;;;;;;;;;;;;;;;;10643020;27;20347;-74
2024/04/10 01:13:53;;;;;;;2.83;0.70;;;;;;;;;;10624661;27;19929;-74
2024/04/10 01:18:58;;;;;;;3.35;0.80;;;;;;;;;;10634387;27;20578;-74
2024/04/10 01:24:06;;;;;;;2.03;0.80;;;;;;;;;;10631515;27;20028;-74
2024/04/10 01:29:11;;;;;;;2.08;0.80;;;;;;;;;;10618530;27;20028;-73
2024/04/10 01:34:16;;;;;;;3.83;1.20;;;;;;;;;;10635021;27;20467;-74
2024/04/10 01:39:24;;;;;;;1.20;0.63;;;;;;;;;;10623850;27;20494;-73
2024/04/10 01:44:29;;;;;;;1.73;0.60;;;;;;;;;;10620181;27;20025;-74
2024/04/10 01:49:34;;;;;;;2.13;0.82;;;;;;;;;;10636106;27;20027;-74
2024/04/10 01:54:41;;;;;;;2.63;1.02;;;;;;;;;;10637634;27;20023;-74
2024/04/10 01:59:46;;;;;;;2.55;0.80;;;;;;;;;;10629869;27;20028;-74
2024/04/10 02:04:51;;;;;;;1.98;0.90;;;;;;;;;;10639407;27;20363;-74
2024/04/10 02:09:59;;;;;;;4.60;0.90;;;;;;;;;;10634137;27;20568;-74
2024/04/10 02:15:04;;;;;;;2.92;0.88;;;;;;;;;;10633820;27;20009;-74
2024/04/10 02:20:10;;;;;;;1.42;0.73;;;;;;;;;;10642352;27;20013;-74
2024/04/10 02:25:18;;;;;;;0.88;0.60;;;;;;;;;;10631352;27;20028;-74
2024/04/10 02:30:23;;;;;;;3.55;0.73;;;;;;;;;;10630606;27;20483;-74
2024/04/10 02:35:27;;;;;;;1.88;0.90;;;;;;;;;;10636194;27;20146;-74
2024/04/10 02:40:35;;;;;;;1.50;0.60;;;;;;;;;;10623065;27;20467;-74
2024/04/10 02:45:40;;;;;;;2.42;0.80;;;;;;;;;;10623165;27;20486;-74
2024/04/10 02:50:45;;;;;;;3.17;0.68;;;;;;;;;;10631529;27;20017;-74
2024/04/10 02:55:55;;;;;;;1.60;0.80;;;;;;;;;;10629324;27;20012;-74
2024/04/10 03:01:00;;;;;;;2.33;0.80;;;;;;;;;;10633169;27;20475;-74
2024/04/10 03:06:07;;;;;;;1.65;0.98;;;;;;;;;;10631633;27;20024;-74
2024/04/10 03:11:16;;;;;;;1.77;0.70;;;;;;;;;;10630255;27;20342;-74
2024/04/10 03:16:21;;;;;;;4.22;0.73;;;;;;;;;;10630025;27;20013;-74
2024/04/10 03:21:26;;;;;;;0.98;0.80;;;;;;;;;;10620374;27;20017;-74
2024/04/10 03:26:34;;;;;;;2.08;0.80;;;;;;;;;;10623834;27;20024;-74
2024/04/10 03:31:39;;;;;;;1.00;0.60;;;;;;;;;;10628365;27;20461;-74
2024/04/10 03:36:44;;;;;;;3.55;0.90;;;;;;;;;;10612538;27;20024;-74
2024/04/10 03:41:52;;;;;;;1.13;0.80;;;;;;;;;;10619139;27;20013;-74
2024/04/10 03:46:57;;;;;;;2.60;0.80;;;;;;;;;;10620659;27;20045;-74
2024/04/10 03:52:02;;;;;;;2.05;0.90;;;;;;;;;;10621294;27;20094;-74
2024/04/10 03:57:10;;;;;;;1.95;0.85;;;;;;;;;;10648602;22;20023;-75
2024/04/10 04:02:15;;;;;;;2.03;1.05;;;;;;;;;;10684356;27;20020;-75
2024/04/10 04:07:20;;;;;;;4.03;1.30;;;;;;;;;;10679948;27;20009;-75
2024/04/10 04:12:28;;;;;;;1.75;1.02;;;;;;;;;;10684607;27;20012;-75
2024/04/10 04:17:34;;;;;;;4.05;1.35;;;;;;;;;;10671045;27;20009;-75
2024/04/10 04:22:39;;;;;;;2.50;0.88;;;;;;;;;;10684803;27;20786;-75
2024/04/10 04:27:47;;;;;;;2.50;1.27;;;;;;;;;;10660612;27;20553;-75
2024/04/10 04:32:52;;;;;;;2.90;1.15;;;;;;;;;;10675271;27;20356;-75
2024/04/10 04:37:59;;;;;;;2.85;1.23;;;;;;;;;;10667503;27;20620;-75
2024/04/10 04:43:08;;;;;;;1.77;0.88;;;;;;;;;;10675756;27;20026;-75
2024/04/10 04:48:14;;;;;;;1.85;1.05;;;;;;;;;;10668869;27;20032;-75
2024/04/10 04:53:19;;;;;;;3.80;1.33;;;;;;;;;;10679031;27;20120;-75
2024/04/10 04:58:27;;;;;;;1.73;0.80;;;;;;;;;;10673012;27;20024;-75
2024/04/10 05:08:53;;;;;;;2.03;0.95;;;;;;;;;;10691227;27;20016;-75
2024/04/10 05:14:01;;;;;;;6.22;1.20;;;;;;;;;;10680139;27;20012;-75
2024/04/10 05:19:07;;;;;;;1.90;1.08;;;;;;;;;;10663587;27;20012;-75
2024/04/10 05:24:12;;;;;;;2.55;1.10;;;;;;;;;;10682788;27;20016;-75
2024/04/10 05:29:19;;;;;;;2.33;1.35;;;;;;;;;;10681269;27;20013;-75
2024/04/10 05:34:24;;;;;;;5.60;1.30;;;;;;;;;;10690968;27;20023;-75
2024/04/10 05:39:33;;;;;;;2.65;1.38;;;;;;;;;;10688811;27;20455;-75
2024/04/10 05:44:41;;;;;;;3.58;1.58;;;;;;;;;;10677932;27;20009;-75
2024/04/10 05:49:46;;;;;;;3.97;1.60;;;;;;;;;;10685900;27;20485;-75
2024/04/10 05:54:52;;;;;;;4.40;1.40;;;;;;;;;;10687788;27;20004;-75
2024/04/10 06:00:01;;;;;;;2.85;1.40;;;;;;;;;;10680430;27;20012;-75
2024/04/10 06:05:16;;;;;;;4.75;1.75;;;;;;;;;;10680206;27;20279;-75
2024/04/10 06:10:21;;;;;;;3.35;1.70;;;;;;;;;;10685457;27;20008;-75
2024/04/10 06:15:28;;;;;;;3.28;1.50;;;;;;;;;;10691262;27;20028;-75
2024/04/10 06:20:33;;;;;;;4.65;1.85;;;;;;;;;;10676204;27;20013;-75
2024/04/10 06:25:38;;;;;;;5.68;1.88;;;;;;;;;;10677283;27;20109;-75
2024/04/10 06:30:46;;;;;;;3.30;1.90;;;;;;;;;;10683631;27;20015;-75
2024/04/10 06:35:51;;;;;;;3.65;1.77;;;;;;;;;;10667791;27;20023;-75
2024/04/10 06:40:56;;;;;;;3.10;1.48;;;;;;;;;;10683105;27;20012;-75
2024/04/10 06:46:07;;;;;;;3.25;1.30;;;;;;;;;;10694884;27;20032;-75
2024/04/10 06:51:12;;;;;;;2.28;0.95;;;;;;;;;;10683172;27;20016;-76
2024/04/10 06:56:18;;;;;;;1.85;0.98;;;;;;;;;;10682350;27;20477;-76
2024/04/10 07:01:25;;;;;;;3.03;1.17;;;;;;;;;;10676407;27;20027;-75
2024/04/10 07:06:30;;;;;;;3.08;1.08;;;;;;;;;;10683251;27;20024;-75
2024/04/10 07:11:35;;;;;;;5.68;1.23;;;;;;;;;;10682910;27;20009;-76
2024/04/10 07:16:43;;;;;;;8.25;1.77;;;;;;;;;;10683440;27;20023;-75
2024/04/10 07:21:48;;;;;;;3.72;1.20;;;;;;;;;;10669438;27;20925;-75
2024/04/10 07:26:53;;;;;;;4.13;1.35;;;;;;;;;;10682558;27;20023;-75
2024/04/10 07:32:02;;;;;;;5.15;1.35;;;;;;;;;;10674676;27;20008;-75
2024/04/10 07:37:07;;;;;;;5.35;1.73;;;;;;;;;;10671146;27;20016;-75
2024/04/10 07:42:12;;;;;;;8.23;1.80;;;;;;;;;;10680088;27;20724;-75
2024/04/10 07:47:20;;;;;;;7.72;1.95;;;;;;;;;;10689733;27;20665;-75
2024/04/10 07:52:25;;;;;;;3.90;1.48;;;;;;;;;;10669248;27;20053;-75
2024/04/10 07:57:30;;;;;;;6.38;1.65;;;;;;;;;;10692011;27;20016;-75
2024/04/10 08:02:38;;;;;;;3.00;1.50;;;;;;;;;;10684216;27;20023;-75
2024/04/10 08:07:43;;;;;;;7.70;1.70;;;;;;;;;;10683028;27;20013;-75
2024/04/10 08:14:22;;;;;;;9.32;2.08;;;;;;;;;;11441790;25;20344;-75
2024/04/10 08:19:27;;;;;;;6.88;2.15;;;;;;;;;;11401116;25;20009;-75
2024/04/10 08:24:32;;;;;;;7.70;1.92;;;;;;;;;;11405599;25;20009;-75
2024/04/10 08:29:40;;;;;;;5.63;1.90;;;;;;;;;;11417010;25;20396;-75
2024/04/10 08:34:45;;;;;;;4.90;1.70;;;;;;;;;;11412694;25;20005;-75
2024/04/10 08:39:51;;;;;;;5.03;1.20;;;;;;;;;;11417297;25;20039;-75
2024/04/10 08:44:59;;;;;;;4.00;1.00;;;;;;;;;;11401289;25;20024;-75
2024/04/10 08:50:04;;;;;;;2.75;0.90;;;;;;;;;;11415905;25;20238;-75
2024/04/10 08:55:09;;;;;;;6.53;1.87;;;;;;;;;;11410465;25;20462;-75
2024/04/10 09:00:17;;;;;;;6.38;1.60;;;;;;;;;;11433880;25;20020;-75
2024/04/10 09:05:29;;;;;;;4.75;1.55;;;;;;;;;;11419737;25;20005;-75
2024/04/10 09:10:34;;;;;;;2.53;0.98;;;;;;;;;;11411359;25;20001;-75
2024/04/10 09:15:42;;;;;;;2.60;1.00;;;;;;;;;;11401210;25;20767;-75
2024/04/10 09:20:47;;;;;;;4.70;1.20;;;;;;;;;;11413339;25;20002;-75
2024/04/10 09:25:52;;;;;;;1.80;0.80;;;;;;;;;;11364956;26;20017;-75
2024/04/10 09:31:02;;;;;;;3.67;1.13;;;;;;;;;;11387318;26;20024;-75
2024/04/10 09:36:08;;;;;;;4.25;1.23;;;;;;;;;;11373715;26;20020;-75
2024/04/10 09:41:16;;;;;;;3.33;1.25;;;;;;;;;;11383870;25;20046;-75
2024/04/10 09:46:25;;;;;;;2.78;1.13;;;;;;;;;;11373883;26;20017;-75
2024/04/10 09:51:30;;;;;;;6.28;1.50;;;;;;;;;;11371754;26;20891;-75
2024/04/10 09:56:36;;;;;;;3.25;1.65;;;;;;;;;;11325047;21;20239;-74
2024/04/10 10:01:44;;;;;;;4.30;1.25;;;;;;;;;;11112251;26;20701;-74
2024/04/10 10:07:02;;;;;;;2.95;1.13;;;;;;;;;;11117205;26;20012;-73
2024/04/10 10:12:10;;;;;;;3.90;0.97;;;;;;;;;;11107238;26;20020;-74
2024/04/10 10:17:26;;;;;;;3.92;1.23;;;;;;;;;;11115372;26;20016;-73
2024/04/10 10:22:31;;;;;;;5.25;1.58;;;;;;;;;;11114145;26;20547;-74
2024/04/10 10:27:36;;;;;;;2.08;0.93;;;;;;;;;;11110120;26;20012;-73
2024/04/10 10:32:44;;;;;;;3.63;0.80;;;;;;;;;;11113270;26;20019;-73
2024/04/10 10:37:49;;;;;;;4.22;1.15;;;;;;;;;;11110327;26;20086;-74
2024/04/10 10:43:02;;;;;;;4.03;1.30;;;;;;;;;;11115956;26;20019;-73
2024/04/10 10:48:17;;;;;;;3.58;1.20;;;;;;;;;;11116017;26;20735;-74
2024/04/10 10:53:23;;;;;;;3.23;0.97;;;;;;;;;;11117189;26;20004;-73
2024/04/10 10:58:29;;;;;;;4.33;1.50;;;;;;;;;;11114713;26;20023;-73
2024/04/10 11:03:37;;;;;;;;;;;;;;;;;;11118578;26;20026;-73
2024/04/10 11:08:42;;;;;;;3.80;1.48;;;;;;;;;;11109049;26;19936;-74
2024/04/10 11:13:51;;;;;;;5.18;1.45;;;;;;;;;;11111271;26;20004;-73
2024/04/10 11:18:59;;;;;;;1.52;0.95;;;;;;;;;;11113451;26;20236;-73
2024/04/10 11:24:04;;;;;;;2.88;0.93;;;;;;;;;;11110934;26;20012;-74
2024/04/10 11:29:09;;;;;;;1.30;0.70;;;;;;;;;;11109268;26;20012;-73
2024/04/10 11:34:18;;;;;;;3.75;1.15;;;;;;;;;;11111207;26;20023;-73
2024/04/10 11:39:24;;;;;;;1.67;0.63;;;;;;;;;;11102003;26;20009;-74
2024/04/10 11:44:29;;;;;;;3.40;1.10;;;;;;;;;;11113608;26;20023;-73
2024/04/10 11:49:37;;;;;;;1.45;0.60;;;;;;;;;;11114324;26;20008;-73
2024/04/10 11:54:42;;;;;;;2.90;0.98;;;;;;;;;;11109130;26;20472;-73
2024/04/10 11:59:49;;;;;;;2.17;0.73;;;;;;;;;;11111402;26;20013;-74
2024/04/10 12:04:56;;;;;;;1.48;0.57;;;;;;;;;;11113360;26;20361;-73
2024/04/10 12:10:02;;;;;;;1.40;0.70;;;;;;;;;;11113161;26;20469;-74
2024/04/10 12:15:08;;;;;;;2.08;0.90;;;;;;;;;;11110968;26;20510;-74
2024/04/10 12:20:16;;;;;;;1.58;0.68;;;;;;;;;;11103938;26;20008;-74
2024/04/10 12:25:21;;;;;;;1.92;0.95;;;;;;;;;;11107966;26;20063;-74
2024/04/10 12:30:27;;;;;;;1.47;0.70;;;;;;;;;;11112717;26;20015;-74
2024/04/10 12:40:59;;;;;;;2.60;0.82;;;;;;;;;;11108185;26;20508;-73
2024/04/10 12:46:04;;;;;;;2.50;1.15;;;;;;;;;;11111862;26;20461;-73
2024/04/10 12:51:11;;;;;;;4.22;1.52;;;;;;;;;;11107876;26;20026;-74
2024/04/10 12:56:16;;;;;;;1.13;0.57;;;;;;;;;;11103280;26;20524;-74
2024/04/10 13:01:21;;;;;;;3.58;0.80;;;;;;;;;;11120041;26;20023;-73
2024/04/10 13:06:29;;;;;;;3.17;1.23;;;;;;;;;;11122603;26;20027;-74
2024/04/10 13:11:34;;;;;;;3.13;0.90;;;;;;;;;;11116812;26;20016;-74
2024/04/10 13:16:39;;;;;;;3.20;0.95;;;;;;;;;;11109957;26;20094;-73
2024/04/10 13:21:47;;;;;;;2.72;0.93;;;;;;;;;;11117826;26;20004;-74
2024/04/10 13:26:53;;;;;;;2.22;0.85;;;;;;;;;;11116599;26;20018;-74
2024/04/10 13:31:58;;;;;;;3.15;0.77;;;;;;;;;;11120020;26;20469;-73
2024/04/10 13:37:08;;;;;;;1.60;0.60;;;;;;;;;;11117799;26;20360;-74
2024/04/10 13:42:13;;;;;;;1.50;0.60;;;;;;;;;;11117030;26;20004;-74
2024/04/10 13:47:18;;;;;;;2.15;0.52;;;;;;;;;;11113129;26;20453;-74
2024/04/10 13:52:27;;;;;;;2.00;0.80;;;;;;;;;;11118545;26;20005;-74
2024/04/10 13:57:33;;;;;;;1.90;0.60;;;;;;;;;;11114613;26;20019;-74
2024/04/10 14:02:38;;;;;;;1.77;0.60;;;;;;;;;;11114084;26;20023;-73
2024/04/10 14:07:48;;;;;;;2.78;0.70;;;;;;;;;;11118395;26;20008;-74
2024/04/10 14:12:53;;;;;;;1.75;0.60;;;;;;;;;;11117726;26;20030;-74
2024/04/10 14:17:58;;;;;;;2.20;0.70;;;;;;;;;;11119235;26;20005;-74
2024/04/10 14:23:06;;;;;;;1.80;0.40;;;;;;;;;;11115670;26;20009;-74
2024/04/10 14:28:11;;;;;;;2.20;0.52;;;;;;;;;;11113293;26;20464;-74
2024/04/10 14:33:16;;;;;;;1.25;0.43;;;;;;;;;;11117011;26;20016;-74
2024/04/10 14:38:25;;;;;;;1.47;0.40;;;;;;;;;;11115211;26;20004;-74
2024/04/10 14:43:31;;;;;;;1.67;0.63;;;;;;;;;;11117023;26;20008;-74
2024/04/10 14:48:37;;;;;;;1.83;0.60;;;;;;;;;;11117483;26;20004;-74
2024/04/10 14:53:45;;;;;;;1.45;0.50;;;;;;;;;;11108757;26;20022;-74
2024/04/10 14:58:50;;;;;;;1.23;0.45;;;;;;;;;;11115411;26;20012;-74
2024/04/10 15:03:55;;;;;;;1.23;0.40;;;;;;;;;;11115301;26;20008;-74
2024/04/10 15:09:04;;;;;;;1.17;0.37;;;;;;;;;;11105679;26;20004;-73
2024/04/10 15:14:09;;;;;;;1.67;0.55;;;;;;;;;;11107399;26;20052;-74
2024/04/10 15:19:14;;;;;;;0.50;0.40;;;;;;;;;;11109182;26;20012;-74
2024/04/10 15:24:22;;;;;;;0.88;0.43;;;;;;;;;;11105274;26;20027;-74
2024/04/10 15:29:27;;;;;;;0.93;0.38;;;;;;;;;;11108409;26;20027;-74
2024/04/10 15:34:32;;;;;;;0.73;0.40;;;;;;;;;;11106400;26;20012;-74
2024/04/10 15:39:40;;;;;;;1.33;0.40;;;;;;;;;;11102546;26;20547;-74
2024/04/10 15:44:45;;;;;;;0.98;0.40;;;;;;;;;;11101365;26;20004;-74
2024/04/10 15:49:50;;;;;;;0.93;0.40;;;;;;;;;;11109266;26;20085;-74
2024/04/10 15:54:58;;;;;;;1.37;0.60;;;;;;;;;;11115313;26;20377;-74
2024/04/10 16:00:04;;;;;;;1.48;0.50;;;;;;;;;;11305475;21;20003;-75
2024/04/10 16:05:09;;;;;;;1.77;0.43;;;;;;;;;;11261632;26;20043;-74
2024/04/10 16:10:17;;;;;;;0.77;0.37;;;;;;;;;;11261992;26;20003;-74
2024/04/10 16:15:26;;;;;;;2.63;0.70;;;;;;;;;;11267482;26;20002;-75
2024/04/10 16:20:31;;;;;;;1.13;0.40;;;;;;;;;;11262792;26;20017;-75
2024/04/10 16:25:39;;;;;;;1.30;0.50;;;;;;;;;;11262960;26;20004;-75
2024/04/10 16:30:44;;;;;;;0.75;0.30;;;;;;;;;;11257719;26;20776;-74
2024/04/10 16:35:49;;;;;;;0.50;0.32;;;;;;;;;;11257557;26;20007;-75
2024/04/10 16:41:02;;;;;;;2.30;0.50;;;;;;;;;;11267710;25;20018;-75
2024/04/10 16:46:09;;;;;;;1.35;0.35;;;;;;;;;;11267610;26;20009;-74
2024/04/10 16:51:16;;;;;;;1.50;0.30;;;;;;;;;;11264583;26;20018;-75
2024/04/10 16:56:25;;;;;;;2.15;0.52;;;;;;;;;;11268401;26;20012;-74
2024/04/10 17:01:30;;;;;;;2.42;0.45;;;;;;;;;;11238791;26;20011;-75
2024/04/10 17:06:35;;;;;;;0.60;0.40;;;;;;;;;;11244431;26;20022;-74
2024/04/10 17:11:43;;;;;;;0.93;0.50;;;;;;;;;;11252836;26;20007;-75
2024/04/10 17:16:50;;;;;;;1.35;0.50;;;;;;;;;;11258829;26;20092;-74
2024/04/10 17:21:56;;;;;;;2.40;0.40;;;;;;;;;;11260406;26;20473;-75
2024/04/10 17:27:04;;;;;;;0.75;0.45;;;;;;;;;;11260188;26;20003;-74
2024/04/10 17:35:17;;;;;;;1.88;0.57;;;;;;;;;;11273342;25;20341;-75
2024/04/10 17:42:11;;;;;;;1.02;0.50;;;;;;;;;;11559708;25;21081;-75
2024/04/10 17:47:17;;;;;;;1.10;0.50;;;;;;;;;;11340645;25;20016;-75
2024/04/10 17:52:22;;;;;;;2.17;0.60;;;;;;;;;;11404146;25;20457;-75
2024/04/10 17:57:30;;;;;;;1.45;0.40;;;;;;;;;;11399006;25;20102;-75
2024/04/10 18:02:35;;;;;;;0.95;0.47;;;;;;;;;;11374435;25;20342;-75
2024/04/10 18:07:40;;;;;;;1.50;0.90;;;;;;;;;;11400475;25;20017;-75
2024/04/10 18:12:48;;;;;;;2.80;1.05;;;;;;;;;;11403830;25;20057;-75
2024/04/10 18:17:53;;;;;;;1.15;0.82;;;;;;;;;;11367398;25;20090;-75
2024/04/10 18:22:58;;;;;;;2.08;0.70;;;;;;;;;;11326709;25;20813;-76
2024/04/10 18:28:06;;;;;;;2.08;0.73;;;;;;;;;;11399063;25;20033;-75
2024/04/10 18:33:12;;;;;;;1.08;0.57;;;;;;;;;;11369510;25;20009;-75
2024/04/10 18:38:17;;;;;;;1.00;0.60;;;;;;;;;;11397859;25;20017;-75
2024/04/10 18:43:25;;;;;;;1.40;0.60;;;;;;;;;;11399542;25;20034;-75
2024/04/10 18:48:36;;;;;;;1.25;0.70;;;;;;;;;;11390564;25;20006;-75
2024/04/10 18:53:41;;;;;;;1.42;0.60;;;;;;;;;;11350164;26;20056;-75
2024/04/10 18:58:48;;;;;;;1.63;0.68;;;;;;;;;;11328906;26;20006;-75
2024/04/10 19:03:54;;;;;;;2.70;0.65;;;;;;;;;;11362850;26;20085;-75
2024/04/10 19:08:59;;;;;;;0.97;0.63;;;;;;;;;;11291553;26;20018;-75
2024/04/10 19:14:07;;;;;;;0.87;0.50;;;;;;;;;;11280612;26;20367;-75
2024/04/10 19:19:13;;;;;;;2.30;0.70;;;;;;;;;;11272871;26;20017;-75
2024/04/10 19:24:18;;;;;;;2.92;0.75;;;;;;;;;;11278633;26;20026;-75
2024/04/10 19:29:26;;;;;;;2.35;0.90;;;;;;;;;;11248465;26;20002;-75
2024/04/10 19:34:31;;;;;;;1.95;0.80;;;;;;;;;;11281339;26;20018;-75
2024/04/10 19:39:37;;;;;;;4.20;1.10;;;;;;;;;;11285299;26;20014;-75
2024/04/10 19:44:46;;;;;;;;;;;;;;;;;;11219580;26;20013;-75
2024/04/10 19:49:51;;;;;;;2.50;1.42;;;;;;;;;;11231500;26;19925;-75
2024/04/10 19:54:56;;;;;;;2.40;1.35;;;;;;;;;;11254869;26;20358;-75
2024/04/10 20:00:05;;;;;;;3.35;1.58;;;;;;;;;;11262541;26;20025;-75
2024/04/10 20:05:17;;;;;;;3.22;1.75;;;;;;;;;;11259928;26;20013;-75
2024/04/10 20:10:22;;;;;;;2.67;1.63;;;;;;;;;;11232645;26;20087;-75
2024/04/10 20:15:30;;;;;;;2.30;1.50;;;;;;;;;;11341571;26;20013;-74
2024/04/10 20:20:36;;;;;;;2.20;1.60;;;;;;;;;;11357588;26;20001;-74
2024/04/10 20:25:41;;;;;;;1.77;1.20;;;;;;;;;;11318751;26;20469;-74
2024/04/10 20:30:51;;;;;;;1.80;1.25;;;;;;;;;;11351200;26;20006;-75
2024/04/10 20:35:56;;;;;;;1.80;1.30;;;;;;;;;;11318364;26;20020;-75
2024/04/10 20:41:03;;;;;;;0.77;0.70;;;;;;;;;;11286132;26;20011;-75
2024/04/10 20:46:12;;;;;;;1.85;1.00;;;;;;;;;;11278144;26;20011;-75
2024/04/10 20:51:18;;;;;;;3.28;1.23;;;;;;;;;;11280045;26;20029;-76
2024/04/10 20:56:24;;;;;;;3.42;1.10;;;;;;;;;;11298263;26;20010;-75
2024/04/10 21:01:31;;;;;;;3.05;1.13;;;;;;;;;;11265336;26;20011;-75
2024/04/10 22:10:49;;;;;;;1.58;1.30;;;;;;;;;;11115220;26;20015;-74
2024/04/10 22:15:54;;;;;;;1.45;0.80;;;;;;;;;;11110555;26;20019;-74
2024/04/10 22:26:24;;;;;;;2.45;1.50;;;;;;;;;;11132642;26;19932;-73
2024/04/10 22:31:29;;;;;;;2.08;1.25;;;;;;;;;;11104608;26;20035;-73
2024/04/10 22:36:37;;;;;;;1.48;1.02;;;;;;;;;;11126707;26;20008;-73
2024/04/10 22:41:42;;;;;;;1.75;1.00;;;;;;;;;;11127166;26;20030;-73
2024/04/10 22:46:47;;;;;;;1.80;1.00;;;;;;;;;;11133181;26;20031;-73
2024/04/10 22:51:54;;;;;;;2.13;1.17;;;;;;;;;;11128113;26;20004;-74
2024/04/10 22:56:59;;;;;;;3.17;1.38;;;;;;;;;;11132051;26;20026;-73
2024/04/10 23:02:04;;;;;;;1.73;1.08;;;;;;;;;;11142927;26;20012;-73
2024/04/10 23:07:12;;;;;;;2.95;1.38;;;;;;;;;;11092688;26;20460;-74
2024/04/10 23:12:20;;;;;;;2.13;1.38;;;;;;;;;;11127268;26;20004;-73
2024/04/10 23:17:25;;;;;;;2.65;1.33;;;;;;;;;;11131971;26;20534;-73
2024/04/10 23:22:32;;;;;;;2.08;1.25;;;;;;;;;;11130029;26;20106;-74
2024/04/10 23:27:38;;;;;;;2.67;1.73;;;;;;;;;;11122856;26;20034;-73
2024/04/10 23:32:43;;;;;;;2.80;1.70;;;;;;;;;;11127316;26;20019;-74
2024/04/10 23:37:51;;;;;;;2.95;1.83;;;;;;;;;;11124232;26;20019;-73
2024/04/10 23:42:55;;;;;;;2.55;1.33;;;;;;;;;;11117892;26;20061;-73
2024/04/10 23:48:01;;;;;;;2.45;1.45;;;;;;;;;;11095135;26;20008;-74
2024/04/10 23:53:09;;;;;;;4.10;1.65;;;;;;;;;;11133450;26;20015;-74
2024/04/10 23:58:14;;;;;;;3.15;1.48;;;;;;;;;;11121638;26;20027;-74
